createdAt,value
2023-03-17T00:00:20.241Z,5.78
2023-03-17T00:02:48.787Z,5.05
2023-03-17T00:05:16.009Z,4.75
2023-03-17T00:07:43.239Z,4.50
2023-03-17T00:10:25.135Z,5.57
2023-03-17T00:12:55.981Z,5.03
2023-03-17T00:15:24.669Z,4.80
2023-03-17T00:17:51.847Z,9.05
2023-03-17T00:20:29.730Z,5.40
2023-03-17T00:22:58.503Z,6.93
2023-03-17T00:25:28.104Z,7.55
2023-03-17T00:27:55.818Z,5.80
2023-03-17T00:30:23.619Z,6.05
2023-03-17T00:32:52.176Z,5.05
2023-03-17T00:35:21.881Z,5.53
2023-03-17T00:37:49.883Z,5.60
2023-03-17T00:40:21.690Z,4.05
2023-03-17T00:42:49.578Z,3.88
2023-03-17T00:45:17.071Z,5.90
2023-03-17T00:47:45.423Z,6.28
2023-03-17T00:50:17.575Z,5.53
2023-03-17T00:52:45.599Z,4.28
2023-03-17T00:55:13.487Z,5.22
2023-03-17T00:57:41.192Z,5.32
2023-03-17T01:00:17.637Z,4.88
2023-03-17T01:02:45.598Z,5.10
2023-03-17T01:05:13.266Z,4.20
2023-03-17T01:07:40.798Z,4.47
2023-03-17T01:10:14.271Z,5.07
2023-03-17T01:12:41.371Z,5.63
2023-03-17T01:15:08.723Z,6.70
2023-03-17T01:17:35.827Z,4.55
2023-03-17T01:20:02.959Z,5.38
2023-03-17T01:22:30.119Z,4.85
2023-03-17T01:24:57.310Z,4.78
2023-03-17T01:27:25.374Z,4.38
2023-03-17T01:29:55.879Z,6.05
2023-03-17T01:32:23.139Z,7.05
2023-03-17T01:34:51.157Z,6.88
2023-03-17T01:37:18.282Z,5.90
2023-03-17T01:39:45.538Z,5.75
2023-03-17T01:42:13.729Z,5.95
2023-03-17T01:44:57.973Z,7.78
2023-03-17T01:47:26.491Z,7.15
2023-03-17T01:49:53.645Z,6.75
2023-03-17T01:52:22.196Z,5.00
2023-03-17T01:54:57.326Z,5.45
2023-03-17T01:57:30.351Z,6.07
2023-03-17T02:00:06.012Z,5.30
2023-03-17T02:02:35.297Z,4.55
2023-03-17T02:05:03.755Z,7.93
2023-03-17T02:07:31.357Z,4.40
2023-03-17T02:09:58.874Z,6.57
2023-03-17T02:12:26.649Z,4.97
2023-03-17T02:14:54.027Z,6.40
2023-03-17T02:17:22.108Z,4.50
2023-03-17T02:19:49.622Z,5.40
2023-03-17T02:22:17.974Z,5.40
2023-03-17T02:24:48.303Z,6.15
2023-03-17T02:27:21.249Z,4.50
2023-03-17T02:29:48.414Z,6.15
2023-03-17T02:32:17.722Z,5.85
2023-03-17T02:34:46.316Z,6.20
2023-03-17T02:37:13.962Z,6.10
2023-03-17T02:39:41.503Z,5.65
2023-03-17T02:42:09.280Z,5.30
2023-03-17T02:44:36.630Z,6.97
2023-03-17T02:47:03.821Z,4.45
2023-03-17T02:49:31.640Z,6.43
2023-03-17T02:51:58.968Z,4.97
2023-03-17T02:54:26.580Z,6.75
2023-03-17T02:56:53.808Z,7.60
2023-03-17T02:59:21.239Z,5.18
2023-03-17T03:01:49.327Z,5.80
2023-03-17T03:04:16.657Z,8.27
2023-03-17T03:06:44.744Z,6.10
2023-03-17T03:09:12.169Z,6.00
2023-03-17T03:11:39.785Z,7.20
2023-03-17T03:14:07.068Z,5.53
2023-03-17T03:16:34.428Z,6.18
2023-03-17T03:19:01.911Z,8.55
2023-03-17T03:21:29.256Z,7.10
2023-03-17T03:23:56.610Z,6.13
2023-03-17T03:26:23.789Z,5.75
2023-03-17T03:28:51.221Z,7.07
2023-03-17T03:31:18.405Z,7.40
2023-03-17T03:33:45.882Z,7.22
2023-03-17T03:36:13.476Z,6.32
2023-03-17T03:38:41.660Z,7.00
2023-03-17T03:41:09.435Z,6.70
2023-03-17T03:43:36.919Z,8.13
2023-03-17T03:46:04.650Z,9.02
2023-03-17T03:48:31.889Z,11.65
2023-03-17T03:50:59.914Z,5.53
2023-03-17T03:53:27.822Z,6.68
2023-03-17T03:55:55.959Z,6.97
2023-03-17T03:58:23.567Z,6.57
2023-03-17T04:00:51.177Z,6.70
2023-03-17T04:03:18.385Z,5.63
2023-03-17T04:05:45.599Z,7.30
2023-03-17T04:08:12.819Z,7.80
2023-03-17T04:10:40.109Z,6.95
2023-03-17T04:13:08.438Z,7.22
2023-03-17T04:15:35.844Z,5.70
2023-03-17T04:18:03.085Z,6.18
2023-03-17T04:20:30.653Z,5.53
2023-03-17T04:22:57.966Z,9.88
2023-03-17T04:25:25.145Z,7.35
2023-03-17T04:27:52.285Z,10.68
2023-03-17T04:30:19.814Z,6.43
2023-03-17T04:32:47.603Z,7.38
2023-03-17T04:35:17.608Z,8.52
2023-03-17T04:37:45.014Z,10.82
2023-03-17T04:40:12.973Z,6.80
2023-03-17T04:42:40.643Z,8.90
2023-03-17T04:45:09.577Z,8.40
2023-03-17T04:47:37.303Z,8.23
2023-03-17T04:50:05.367Z,10.18
2023-03-17T04:52:32.682Z,9.77
2023-03-17T04:54:59.838Z,8.20
2023-03-17T04:57:27.042Z,7.53
2023-03-17T04:59:54.266Z,8.57
2023-03-17T05:02:21.441Z,5.85
2023-03-17T05:04:48.727Z,7.05
2023-03-17T05:07:16.151Z,7.65
2023-03-17T05:09:43.251Z,11.15
2023-03-17T05:12:13.751Z,8.40
2023-03-17T05:14:41.127Z,10.95
2023-03-17T05:17:08.611Z,6.60
2023-03-17T05:19:35.969Z,7.82
2023-03-17T05:22:03.100Z,6.95
2023-03-17T05:24:30.276Z,9.15
2023-03-17T05:26:57.730Z,11.48
2023-03-17T05:29:24.976Z,11.73
2023-03-17T05:31:52.156Z,14.57
2023-03-17T05:34:19.578Z,11.55
2023-03-17T05:36:47.650Z,12.77
2023-03-17T05:39:17.406Z,17.35
2023-03-17T05:41:44.551Z,11.73
2023-03-17T05:44:11.657Z,20.20
2023-03-17T05:46:38.826Z,15.73
2023-03-17T05:49:06.071Z,14.57
2023-03-17T05:51:34.340Z,16.45
2023-03-17T05:54:02.943Z,16.17
2023-03-17T05:56:33.721Z,13.45
2023-03-17T05:59:01.796Z,14.30
2023-03-17T06:01:29.216Z,13.82
2023-03-17T06:03:56.520Z,11.85
2023-03-17T06:06:24.648Z,11.32
2023-03-17T06:08:52.359Z,12.60
2023-03-17T06:11:21.452Z,9.23
2023-03-17T06:13:48.674Z,11.48
2023-03-17T06:16:16.030Z,9.05
2023-03-17T06:18:43.202Z,10.40
2023-03-17T06:21:10.439Z,11.45
2023-03-17T06:23:37.587Z,12.90
2023-03-17T06:26:04.754Z,11.10
2023-03-17T06:28:31.979Z,8.57
2023-03-17T06:30:59.460Z,8.90
2023-03-17T06:33:27.139Z,7.45
2023-03-17T06:35:54.381Z,8.50
2023-03-17T06:38:21.997Z,7.50
2023-03-17T06:40:49.183Z,6.00
2023-03-17T06:43:18.519Z,11.35
2023-03-17T06:45:46.319Z,8.70
2023-03-17T06:48:13.459Z,6.10
2023-03-17T06:50:40.781Z,7.22
2023-03-17T06:53:08.214Z,8.60
2023-03-17T06:55:35.721Z,7.75
2023-03-17T06:58:03.241Z,9.70
2023-03-17T07:00:30.711Z,5.80
2023-03-17T07:02:57.882Z,7.20
2023-03-17T07:05:25.172Z,8.55
2023-03-17T07:07:52.268Z,6.70
2023-03-17T07:10:19.844Z,9.32
2023-03-17T07:12:47.054Z,8.48
2023-03-17T07:15:14.270Z,7.30
2023-03-17T07:17:41.889Z,6.63
2023-03-17T07:20:09.759Z,6.45
2023-03-17T07:22:36.960Z,6.70
2023-03-17T07:25:04.304Z,9.77
2023-03-17T07:27:31.511Z,6.80
2023-03-17T07:30:02.219Z,5.93
2023-03-17T07:32:29.629Z,7.25
2023-03-17T07:34:57.153Z,5.57
2023-03-17T07:37:24.873Z,6.45
2023-03-17T07:39:53.551Z,6.53
2023-03-17T07:42:20.643Z,5.38
2023-03-17T07:44:47.965Z,7.82
2023-03-17T07:47:15.751Z,7.07
2023-03-17T07:49:43.800Z,6.35
2023-03-17T07:52:11.829Z,4.88
2023-03-17T07:54:42.284Z,7.28
2023-03-17T07:57:09.880Z,6.18
2023-03-17T07:59:38.278Z,4.80
2023-03-17T08:02:05.646Z,5.82
2023-03-17T08:04:32.808Z,5.38
2023-03-17T08:06:59.960Z,5.13
2023-03-17T08:09:27.118Z,5.28
2023-03-17T08:11:54.353Z,4.47
2023-03-17T08:14:21.931Z,5.20
2023-03-17T08:16:49.253Z,4.30
2023-03-17T08:19:16.601Z,5.60
2023-03-17T08:21:43.794Z,5.40
2023-03-17T08:24:11.100Z,5.07
2023-03-17T08:26:38.335Z,4.70
2023-03-17T08:29:05.533Z,5.75
2023-03-17T08:31:34.012Z,5.28
2023-03-17T08:34:02.680Z,4.72
2023-03-17T08:36:30.273Z,5.35
2023-03-17T08:38:57.682Z,6.78
2023-03-17T08:41:26.888Z,4.90
2023-03-17T08:43:54.338Z,5.30
2023-03-17T08:46:23.728Z,8.48
2023-03-17T08:48:52.372Z,4.65
2023-03-17T08:51:23.655Z,4.28
2023-03-17T08:53:51.829Z,5.78
2023-03-17T08:56:19.016Z,4.63
2023-03-17T08:58:46.837Z,5.63
2023-03-17T09:01:14.510Z,4.57
2023-03-17T09:03:41.959Z,7.50
2023-03-17T09:06:12.501Z,7.85
2023-03-17T09:08:44.450Z,4.93
2023-03-17T09:11:14.014Z,5.65
2023-03-17T09:13:41.533Z,4.80
2023-03-17T09:16:22.682Z,4.60
2023-03-17T09:18:49.999Z,7.10
2023-03-17T09:21:17.434Z,6.47
2023-03-17T09:23:44.660Z,4.82
2023-03-17T09:26:12.637Z,6.72
2023-03-17T09:28:39.913Z,4.90
2023-03-17T09:31:11.589Z,3.80
2023-03-17T09:33:39.766Z,5.63
2023-03-17T09:36:07.515Z,5.85
2023-03-17T09:38:35.037Z,6.10
2023-03-17T09:41:02.128Z,5.55
2023-03-17T09:43:52.615Z,6.53
2023-03-17T09:46:28.945Z,6.43
2023-03-17T09:49:00.921Z,5.53
2023-03-17T09:51:29.239Z,6.22
2023-03-17T09:54:01.210Z,5.25
2023-03-17T09:56:32.032Z,6.22
2023-03-17T09:59:16.181Z,7.05
2023-03-17T10:01:44.029Z,7.05
2023-03-17T10:04:12.096Z,7.47
2023-03-17T10:06:50.127Z,5.30
2023-03-17T10:09:46.836Z,5.63
2023-03-17T10:12:26.803Z,6.68
2023-03-17T10:15:11.441Z,5.15
2023-03-17T10:17:42.684Z,4.63
2023-03-17T10:20:25.481Z,5.15
2023-03-17T10:22:57.928Z,4.85
2023-03-17T10:25:25.680Z,3.65
2023-03-17T10:28:00.562Z,4.57
2023-03-17T10:30:28.033Z,4.50
2023-03-17T10:32:57.967Z,4.97
2023-03-17T10:35:25.557Z,4.63
2023-03-17T10:38:11.837Z,5.82
2023-03-17T10:40:41.851Z,4.63
2023-03-17T10:43:16.759Z,4.70
2023-03-17T10:45:48.587Z,6.65
2023-03-17T10:48:20.062Z,3.75
2023-03-17T10:50:49.540Z,6.70
2023-03-17T10:53:30.614Z,4.68
2023-03-17T10:55:59.640Z,7.05
2023-03-17T10:58:29.778Z,3.63
2023-03-17T11:01:03.516Z,5.10
2023-03-17T11:03:34.212Z,3.42
2023-03-17T11:06:06.353Z,6.00
2023-03-17T11:08:35.945Z,5.13
2023-03-17T11:11:06.389Z,4.63
2023-03-17T11:13:33.705Z,3.33
2023-03-17T11:16:19.693Z,4.10
2023-03-17T11:18:48.510Z,4.45
2023-03-17T11:21:30.378Z,4.53
2023-03-17T11:24:06.894Z,4.83
2023-03-17T11:26:57.457Z,3.83
2023-03-17T11:29:27.657Z,5.70
2023-03-17T11:32:00.773Z,4.25
2023-03-17T11:34:43.462Z,6.72
2023-03-17T11:37:27.239Z,4.40
2023-03-17T11:40:07.855Z,3.95
2023-03-17T11:42:43.964Z,5.07
2023-03-17T11:45:16.783Z,4.50
2023-03-17T11:47:47.071Z,4.85
2023-03-17T11:50:32.907Z,5.35
2023-03-17T11:53:19.239Z,2.83
2023-03-17T11:55:48.865Z,3.92
2023-03-17T11:58:37.470Z,4.47
2023-03-17T12:01:09.046Z,3.70
2023-03-17T12:03:48.726Z,5.05
2023-03-17T12:06:26.647Z,7.75
2023-03-17T12:08:57.613Z,8.55
2023-03-17T12:11:28.280Z,3.83
2023-03-17T12:14:12.781Z,3.72
2023-03-17T12:16:41.967Z,4.20
2023-03-17T12:19:20.620Z,3.65
2023-03-17T12:21:54.199Z,4.15
2023-03-17T12:24:41.557Z,8.05
2023-03-17T12:27:16.948Z,3.92
2023-03-17T12:29:47.305Z,3.47
2023-03-17T12:32:19.812Z,4.35
2023-03-17T12:34:46.947Z,4.88
2023-03-17T12:37:15.713Z,3.80
2023-03-17T12:39:58.722Z,5.20
2023-03-17T12:42:32.084Z,6.82
2023-03-17T12:45:20.048Z,4.32
2023-03-17T12:48:05.264Z,3.50
2023-03-17T12:50:39.498Z,3.78
2023-03-17T12:53:26.675Z,4.65
2023-03-17T12:55:55.703Z,8.25
2023-03-17T12:58:29.016Z,4.65
2023-03-17T13:01:01.072Z,3.67
2023-03-17T13:03:33.893Z,3.05
2023-03-17T13:06:07.410Z,6.07
2023-03-17T13:08:36.455Z,4.78
2023-03-17T13:11:19.092Z,7.78
2023-03-17T13:16:28.669Z,5.45
2023-03-17T13:21:24.970Z,3.78
2023-03-17T13:24:00.157Z,6.75
2023-03-17T13:26:46.250Z,3.20
2023-03-17T13:29:32.707Z,4.63
2023-03-17T13:32:18.815Z,4.63
2023-03-17T13:35:05.585Z,3.40
2023-03-17T13:37:36.022Z,3.83
2023-03-17T13:40:22.164Z,4.38
2023-03-17T13:43:04.646Z,3.03
2023-03-17T13:48:19.943Z,4.38
2023-03-17T13:50:47.300Z,7.72
2023-03-17T13:53:15.699Z,4.63
2023-03-17T13:55:43.597Z,4.30
2023-03-17T13:58:12.205Z,4.40
2023-03-17T14:00:41.419Z,3.70
2023-03-17T14:03:20.276Z,4.57
2023-03-17T14:05:48.679Z,4.07
2023-03-17T14:08:24.013Z,2.90
2023-03-17T14:10:59.844Z,4.43
2023-03-17T14:13:27.880Z,3.85
2023-03-17T14:15:56.867Z,4.72
2023-03-17T14:18:33.065Z,4.53
2023-03-17T14:21:01.987Z,4.45
2023-03-17T14:23:31.169Z,6.68
2023-03-17T14:25:59.704Z,5.03
2023-03-17T14:28:29.181Z,3.13
2023-03-17T14:31:04.610Z,5.47
2023-03-17T14:33:34.598Z,4.40
2023-03-17T14:36:02.973Z,4.65
2023-03-17T14:38:34.581Z,5.35
2023-03-17T14:41:07.777Z,4.75
2023-03-17T14:43:36.113Z,6.47
2023-03-17T14:46:04.459Z,3.55
2023-03-17T14:48:32.959Z,4.43
2023-03-17T14:51:10.995Z,3.55
2023-03-17T14:53:43.161Z,5.53
2023-03-17T14:56:10.603Z,4.00
2023-03-17T14:58:41.097Z,5.03
2023-03-17T15:01:18.358Z,6.97
2023-03-17T15:03:56.474Z,4.93
2023-03-17T15:06:23.812Z,6.85
2023-03-17T15:08:52.515Z,6.97
2023-03-17T15:11:25.772Z,6.50
2023-03-17T15:13:57.379Z,8.27
2023-03-17T15:16:28.433Z,5.10
2023-03-17T15:19:03.621Z,5.50
2023-03-17T15:21:35.929Z,6.40
2023-03-17T15:24:21.785Z,6.88
2023-03-17T15:26:49.155Z,10.95
2023-03-17T15:29:16.410Z,13.30
2023-03-17T15:31:43.591Z,5.93
2023-03-17T15:34:14.947Z,4.50
2023-03-17T15:36:44.130Z,4.55
2023-03-17T15:39:11.361Z,4.93
2023-03-17T15:41:38.503Z,5.07
2023-03-17T15:44:06.016Z,4.60
2023-03-17T15:46:33.733Z,3.95
2023-03-17T15:49:01.127Z,5.13
2023-03-17T15:51:28.323Z,4.93
2023-03-17T15:53:55.678Z,6.78
2023-03-17T15:56:22.935Z,6.13
2023-03-17T15:58:52.244Z,4.65
2023-03-17T16:01:19.877Z,5.65
2023-03-17T16:03:47.758Z,4.72
2023-03-17T16:06:16.813Z,5.07
2023-03-17T16:08:44.052Z,5.57
2023-03-17T16:11:19.225Z,4.32
2023-03-17T16:13:47.477Z,3.92
2023-03-17T16:16:45.825Z,3.72
2023-03-17T16:19:20.058Z,4.70
2023-03-17T16:21:47.842Z,4.38
2023-03-17T16:24:22.753Z,5.40
2023-03-17T16:26:50.882Z,4.43
2023-03-17T16:29:18.951Z,7.50
2023-03-17T16:31:48.892Z,9.07
2023-03-17T16:34:17.496Z,11.25
2023-03-17T16:36:44.632Z,7.55
2023-03-17T16:39:17.023Z,6.07
2023-03-17T16:41:45.304Z,6.15
2023-03-17T16:44:12.749Z,5.18
2023-03-17T16:46:44.700Z,6.80
2023-03-17T16:49:19.624Z,4.82
2023-03-17T16:51:48.758Z,5.63
2023-03-17T16:54:16.726Z,6.90
2023-03-17T16:56:43.927Z,4.70
2023-03-17T16:59:19.870Z,3.72
2023-03-17T17:01:47.143Z,5.90
2023-03-17T17:04:14.396Z,5.88
2023-03-17T17:06:41.530Z,5.88
2023-03-17T17:09:09.220Z,4.75
2023-03-17T17:11:36.334Z,4.15
2023-03-17T17:14:03.708Z,6.78
2023-03-17T17:16:32.631Z,3.80
2023-03-17T17:19:00.222Z,6.65
2023-03-17T17:21:27.772Z,6.63
2023-03-17T17:23:55.306Z,5.63
2023-03-17T17:26:22.625Z,6.82
2023-03-17T17:28:50.040Z,6.57
2023-03-17T17:31:17.338Z,4.10
2023-03-17T17:33:45.109Z,4.75
2023-03-17T17:36:14.312Z,4.30
2023-03-17T17:38:41.514Z,5.28
2023-03-17T17:41:10.684Z,4.00
2023-03-17T17:43:37.994Z,5.82
2023-03-17T17:46:10.413Z,5.28
2023-03-17T17:48:37.594Z,7.10
2023-03-17T17:51:04.802Z,4.80
2023-03-17T17:53:32.047Z,4.57
2023-03-17T17:55:59.240Z,5.93
2023-03-17T17:58:26.777Z,5.63
2023-03-17T18:00:56.974Z,6.00
2023-03-17T18:03:25.339Z,4.20
2023-03-17T18:05:56.351Z,6.45
2023-03-17T18:08:24.140Z,4.97
2023-03-17T18:10:52.230Z,4.00
2023-03-17T18:13:19.604Z,6.72
2023-03-17T18:15:46.907Z,4.88
2023-03-17T18:18:14.058Z,4.50
2023-03-17T18:20:41.627Z,4.35
2023-03-17T18:23:09.215Z,5.57
2023-03-17T18:25:37.299Z,4.97
2023-03-17T18:28:04.905Z,8.63
2023-03-17T18:30:34.814Z,11.95
2023-03-17T18:33:10.544Z,11.05
2023-03-17T18:35:38.165Z,8.70
2023-03-17T18:38:05.623Z,4.57
2023-03-17T18:40:33.609Z,5.43
2023-03-17T18:43:01.125Z,5.25
2023-03-17T18:45:28.940Z,8.48
2023-03-17T18:47:56.093Z,9.65
2023-03-17T18:50:23.416Z,5.82
2023-03-17T18:52:50.680Z,5.60
2023-03-17T18:55:17.982Z,5.50
2023-03-17T18:57:46.417Z,8.70
2023-03-17T19:00:14.882Z,6.47
2023-03-17T19:02:42.056Z,4.65
2023-03-17T19:05:09.494Z,7.05
2023-03-17T19:07:39.729Z,5.85
2023-03-17T19:10:07.650Z,6.03
2023-03-17T19:12:35.036Z,6.10
2023-03-17T19:15:02.322Z,7.22
2023-03-17T19:17:29.550Z,4.13
2023-03-17T19:19:57.125Z,5.85
2023-03-17T19:22:24.328Z,4.55
2023-03-17T19:24:51.814Z,6.43
2023-03-17T19:27:18.967Z,8.98
2023-03-17T19:29:46.381Z,4.60
2023-03-17T19:32:13.919Z,5.57
2023-03-17T19:34:41.429Z,7.07
2023-03-17T19:37:08.649Z,7.30
2023-03-17T19:39:37.680Z,4.70
2023-03-17T19:42:04.929Z,4.57
2023-03-17T19:44:32.141Z,5.50
2023-03-17T19:47:01.646Z,9.25
2023-03-17T19:49:28.908Z,5.30
2023-03-17T19:51:56.482Z,5.72
2023-03-17T19:54:23.726Z,7.63
2023-03-17T19:56:51.587Z,4.53
2023-03-17T19:59:19.854Z,7.75
2023-03-17T20:01:48.769Z,11.73
2023-03-17T20:04:21.189Z,7.05
2023-03-17T20:06:48.690Z,5.53
2023-03-17T20:09:16.135Z,8.35
2023-03-17T20:11:43.417Z,5.30
2023-03-17T20:14:10.850Z,3.92
2023-03-17T20:16:39.333Z,4.13
2023-03-17T20:19:08.500Z,7.00
2023-03-17T20:21:35.866Z,8.30
2023-03-17T20:24:03.450Z,5.30
2023-03-17T20:26:30.652Z,4.90
2023-03-17T20:28:58.265Z,4.93
2023-03-17T20:31:25.635Z,6.30
2023-03-17T20:33:52.832Z,4.05
2023-03-17T20:36:19.997Z,7.07
2023-03-17T20:38:47.288Z,5.95
2023-03-17T20:41:16.048Z,3.92
2023-03-17T20:43:43.444Z,7.43
2023-03-17T20:46:14.870Z,4.32
2023-03-17T20:48:43.336Z,6.07
2023-03-17T20:51:16.236Z,5.03
2023-03-17T20:53:47.771Z,4.85
2023-03-17T20:56:19.907Z,4.32
2023-03-17T20:58:48.614Z,7.87
2023-03-17T21:01:18.262Z,5.72
2023-03-17T21:03:47.319Z,5.90
2023-03-17T21:06:14.826Z,7.65
2023-03-17T21:08:42.498Z,7.32
2023-03-17T21:11:10.002Z,5.47
2023-03-17T21:13:37.308Z,4.25
2023-03-17T21:16:04.619Z,4.72
2023-03-17T21:18:32.099Z,7.00
2023-03-17T21:20:59.795Z,4.68
2023-03-17T21:23:27.218Z,6.38
2023-03-17T21:25:56.078Z,5.43
2023-03-17T21:28:23.538Z,8.02
2023-03-17T21:30:50.721Z,9.32
2023-03-17T21:33:17.963Z,4.90
2023-03-17T21:35:45.155Z,6.68
2023-03-17T21:38:12.476Z,5.03
2023-03-17T21:40:39.628Z,6.30
2023-03-17T21:43:07.108Z,9.23
2023-03-17T21:45:35.577Z,4.82
2023-03-17T21:48:03.039Z,5.53
2023-03-17T21:50:31.613Z,7.18
2023-03-17T21:52:59.307Z,7.20
2023-03-17T21:55:27.174Z,9.35
2023-03-17T21:57:54.316Z,5.00
2023-03-17T22:00:23.565Z,9.35
2023-03-17T22:02:52.781Z,7.13
2023-03-17T22:05:20.499Z,9.32
2023-03-17T22:07:48.408Z,4.63
2023-03-17T22:10:15.602Z,7.45
2023-03-17T22:12:42.744Z,4.72
2023-03-17T22:15:10.358Z,7.28
2023-03-17T22:17:37.996Z,4.43
2023-03-17T22:20:07.154Z,6.57
2023-03-17T22:22:34.525Z,7.30
2023-03-17T22:25:05.009Z,8.25
2023-03-17T22:27:32.512Z,5.85
2023-03-17T22:29:59.690Z,6.43
2023-03-17T22:32:26.943Z,9.68
2023-03-17T22:34:54.128Z,5.53
2023-03-17T22:37:21.314Z,4.82
2023-03-17T22:39:48.483Z,7.75
2023-03-17T22:42:16.484Z,5.40
2023-03-17T22:44:43.750Z,4.97
2023-03-17T22:47:11.627Z,5.38
2023-03-17T22:49:38.793Z,7.03
2023-03-17T22:52:06.033Z,6.55
2023-03-17T22:54:33.188Z,4.35
2023-03-17T22:57:00.606Z,6.90
2023-03-17T22:59:27.712Z,6.97
2023-03-17T23:01:54.929Z,7.47
2023-03-17T23:04:22.119Z,4.60
2023-03-17T23:06:49.439Z,5.32
2023-03-17T23:09:16.647Z,3.72
2023-03-17T23:11:43.947Z,8.20
2023-03-17T23:14:11.497Z,6.57
2023-03-17T23:16:38.749Z,4.53
2023-03-17T23:19:06.267Z,6.50
2023-03-17T23:21:36.394Z,5.82
2023-03-17T23:24:04.687Z,5.75
2023-03-17T23:26:32.244Z,5.40
2023-03-17T23:28:59.403Z,6.57
2023-03-17T23:31:27.420Z,5.63
2023-03-17T23:33:54.549Z,5.93
2023-03-17T23:36:21.832Z,5.72
2023-03-17T23:38:50.296Z,5.07
2023-03-17T23:41:17.666Z,7.03
2023-03-17T23:43:46.591Z,6.18
2023-03-17T23:46:14.692Z,6.68
2023-03-17T23:48:42.963Z,3.85
2023-03-17T23:51:12.086Z,4.93
2023-03-17T23:53:40.071Z,8.40
2023-03-17T23:56:07.953Z,5.95
2023-03-17T23:58:35.133Z,5.45
